Time;durP1;ratioP1;P1;durP2;ratioP2;P2;SDS_P1;SDS_P2;PMS_P1;PMS_P2;Temp;Humidity;BMP_temperature;BMP_pressure;BME280_temperature;BME280_humidity;BME280_pressure;Samples;Min_cycle;Max_cycle;Signal;HPM_P1;HPM_P2
2023/01/18 00:01:50;;;;;;;16.73;10.65;;;;;;;-2.59;98.11;99089.28;5054654;28;20033;-57
2023/01/18 00:04:15;;;;;;;15.57;10.25;;;;;;;-2.58;98.60;99095.31;5054289;28;20033;-56
2023/01/18 00:06:40;;;;;;;18.45;10.35;;;;;;;-2.58;98.61;99085.78;5052476;28;20025;-54
2023/01/18 00:09:06;;;;;;;14.48;10.00;;;;;;;-2.59;98.72;99091.91;5050074;28;20536;-57
2023/01/18 00:11:31;;;;;;;20.80;10.05;;;;;;;-2.58;98.88;99087.53;5048374;28;20032;-56
2023/01/18 00:13:56;;;;;;;18.70;9.93;;;;;;;-2.59;98.22;99084.09;5034201;28;20029;-58
2023/01/18 00:16:22;;;;;;;18.63;10.10;;;;;;;-2.60;98.22;99085.00;5053507;28;20072;-57
2023/01/18 00:18:55;;;;;;;16.88;9.93;;;;;;;-2.62;97.83;99082.47;5053647;28;20486;-57
2023/01/18 00:21:22;;;;;;;16.52;9.73;;;;;;;-2.63;97.67;99086.00;5046264;28;20083;-56
2023/01/18 00:23:47;;;;;;;16.48;9.93;;;;;;;-2.63;97.99;99091.22;5049207;28;20399;-57
2023/01/18 00:26:13;;;;;;;18.02;10.50;;;;;;;-2.63;98.00;99096.41;5053342;28;20028;-57
2023/01/18 00:28:39;;;;;;;16.67;9.88;;;;;;;-2.62;98.19;99094.63;5053881;28;20036;-57
2023/01/18 00:31:12;;;;;;;15.60;10.13;;;;;;;-2.63;98.18;99092.97;5046898;28;20030;-57
2023/01/18 00:33:37;;;;;;;15.00;9.65;;;;;;;-2.63;98.21;99098.19;5050254;28;20040;-57
2023/01/18 00:36:04;;;;;;;19.27;10.25;;;;;;;-2.65;97.82;99106.03;5053426;28;20017;-57
2023/01/18 00:38:29;;;;;;;16.00;9.43;;;;;;;-2.65;98.06;99106.03;5053526;28;20021;-58
2023/01/18 00:40:55;;;;;;;16.23;9.25;;;;;;;-2.65;98.01;99103.44;5046323;28;20033;-58
2023/01/18 00:43:39;;;;;;;14.93;9.05;;;;;;;-2.67;97.87;99102.66;5050555;28;20364;-58
2023/01/18 00:46:18;;;;;;;14.40;8.98;;;;;;;-2.67;98.34;99107.03;5045792;28;20108;-57
2023/01/18 00:48:43;;;;;;;18.42;10.52;;;;;;;-2.69;97.74;99104.50;5043322;28;20033;-56
2023/01/18 00:51:14;;;;;;;14.15;8.75;;;;;;;-2.70;97.72;99107.19;5053279;28;20025;-57
2023/01/18 00:53:43;;;;;;;17.48;9.50;;;;;;;-2.70;98.48;99114.97;5051313;28;20052;-58
2023/01/18 00:56:11;;;;;;;23.83;10.88;;;;;;;-2.73;98.48;99113.38;5053359;28;20036;-58
2023/01/18 00:58:36;;;;;;;17.02;9.63;;;;;;;-2.73;98.32;99112.53;5042940;28;20044;-58
2023/01/18 01:01:03;;;;;;;16.50;9.48;;;;;;;-2.74;98.57;99111.69;5053137;28;20025;-57
2023/01/18 01:06:42;;;;;;;14.80;9.55;;;;;;;-2.75;98.63;99107.41;5053027;28;20491;-59
2023/01/18 01:08:58;;;;;;;16.98;10.48;;;;;;;-2.77;98.72;99116.22;5050813;28;20140;-56
2023/01/18 01:11:23;;;;;;;16.35;10.00;;;;;;;-2.80;98.64;99112.84;5053024;28;20032;-58
2023/01/18 01:27:28;;;;;;;18.92;10.38;;;;;;;-2.86;98.54;99123.53;5051571;28;20564;-57
2023/01/18 01:29:53;;;;;;;16.45;10.15;;;;;;;-2.85;98.66;99129.56;5049387;28;20060;-58
2023/01/18 01:32:18;;;;;;;18.48;10.60;;;;;;;-2.86;99.33;99127.91;5046289;28;20029;-57
2023/01/18 01:34:44;;;;;;;16.90;10.23;;;;;;;-2.87;99.06;99132.22;5052801;28;20479;-58
2023/01/18 01:37:09;;;;;;;16.42;9.57;;;;;;;-2.90;99.02;99137.56;5050663;28;20376;-57
2023/01/18 01:39:34;;;;;;;13.48;9.82;;;;;;;-2.90;99.03;99140.16;5052437;28;20025;-57
2023/01/18 01:42:00;;;;;;;19.77;10.60;;;;;;;-2.92;98.77;99136.81;5052767;28;20103;-57
2023/01/18 01:44:28;;;;;;;16.48;10.30;;;;;;;-2.92;98.88;99148.97;5049244;28;20453;-55
2023/01/18 01:47:22;;;;;;;22.55;10.65;;;;;;;-2.93;99.42;99150.75;5049274;28;20479;-58
2023/01/18 01:49:53;;;;;;;17.13;9.77;;;;;;;-2.93;99.24;99147.28;5047503;28;20430;-58
2023/01/18 01:52:23;;;;;;;19.65;10.27;;;;;;;-2.95;99.18;99154.31;5052729;28;20021;-56
2023/01/18 01:54:58;;;;;;;21.02;11.07;;;;;;;-2.95;99.30;99155.13;5052147;28;20055;-54
2023/01/18 01:57:28;;;;;;;17.58;10.27;;;;;;;-2.94;99.47;99163.81;5052625;28;20425;-57
2023/01/18 02:00:00;;;;;;;17.92;10.88;;;;;;;-2.98;99.69;99155.31;5048790;28;20033;-57
2023/01/18 02:02:26;;;;;;;16.48;10.43;;;;;;;-3.00;99.59;99162.31;5052111;28;20398;-57
2023/01/18 02:04:54;;;;;;;18.05;10.43;;;;;;;-3.01;99.64;99151.09;5049390;28;20079;-56
2023/01/18 02:07:20;;;;;;;16.02;10.10;;;;;;;-3.01;99.33;99160.66;5051375;28;20395;-58
2023/01/18 02:09:46;;;;;;;18.60;10.60;;;;;;;-3.03;99.27;99163.31;5052086;28;20048;-55
2023/01/18 02:12:12;;;;;;;22.83;10.27;;;;;;;-3.05;99.07;99152.16;5051857;28;20483;-57
2023/01/18 02:14:38;;;;;;;22.27;9.48;;;;;;;-3.05;99.56;99157.38;5051971;28;20099;-57
2023/01/18 02:17:13;;;;;;;17.80;10.10;;;;;;;-3.05;99.08;99156.50;5048156;28;20128;-54
2023/01/18 02:20:18;;;;;;;16.58;10.35;;;;;;;-3.06;99.32;99160.03;5052125;28;20029;-56
2023/01/18 02:23:19;;;;;;;19.23;9.52;;;;;;;-3.07;99.68;99153.16;4981514;28;20044;-58
2023/01/18 02:26:05;;;;;;;20.33;10.82;;;;;;;-3.09;99.82;99145.44;5049881;28;20021;-55
2023/01/18 02:28:40;;;;;;;19.58;11.02;;;;;;;-3.11;99.99;99149.84;5046115;28;20024;-58
2023/01/18 02:31:20;;;;;;;17.58;10.32;;;;;;;-3.10;99.91;99151.53;5051934;28;20414;-55
2023/01/18 02:33:57;;;;;;;20.48;9.95;;;;;;;-3.11;100.00;99156.78;5050343;28;20039;-56
2023/01/18 02:36:32;;;;;;;18.60;10.75;;;;;;;-3.12;99.96;99157.72;5051778;28;20040;-53
2023/01/18 02:39:22;;;;;;;19.77;10.38;;;;;;;-3.12;100.00;99155.94;5048240;28;20086;-53
2023/01/18 02:47:27;;;;;;;18.27;10.50;;;;;;;-3.12;99.94;99168.09;5046554;28;20052;-54
2023/01/18 02:49:55;;;;;;;16.20;9.73;;;;;;;-3.12;100.00;99173.31;5049074;28;20510;-54
2023/01/18 02:52:40;;;;;;;17.05;10.30;;;;;;;-3.11;100.00;99180.16;5051562;28;20029;-57
2023/01/18 02:55:18;;;;;;;15.55;9.75;;;;;;;-3.13;100.00;99182.00;5051530;28;20021;-53
2023/01/18 02:57:44;;;;;;;15.68;10.18;;;;;;;-3.14;100.00;99178.56;5050664;28;20040;-53
2023/01/18 03:00:12;;;;;;;17.55;9.73;;;;;;;-3.15;100.00;99182.06;5051652;28;20021;-54
2023/01/18 03:02:40;;;;;;;18.02;10.20;;;;;;;-3.15;100.00;99171.69;5051491;28;20052;-54
2023/01/18 03:05:09;;;;;;;13.68;9.95;;;;;;;-3.19;100.00;99181.38;5051503;28;20021;-56
2023/01/18 03:07:45;;;;;;;15.27;9.73;;;;;;;-3.17;100.00;99182.13;5045539;28;20048;-56
2023/01/18 03:10:12;;;;;;;15.93;9.60;;;;;;;-3.18;100.00;99177.00;5051654;28;20037;-55
2023/01/18 03:12:49;;;;;;;16.80;9.88;;;;;;;-3.19;100.00;99180.53;5051284;28;20033;-57
2023/01/18 03:15:50;;;;;;;18.75;10.63;;;;;;;-3.22;100.00;99178.09;5051754;28;20021;-57
2023/01/18 03:18:59;;;;;;;16.80;9.88;;;;;;;-3.27;100.00;99178.28;5050278;28;20029;-57
2023/01/18 03:21:30;;;;;;;16.38;10.00;;;;;;;-3.29;100.00;99174.09;5040940;28;20040;-52
2023/01/18 03:23:59;;;;;;;14.23;9.80;;;;;;;-3.32;99.93;99174.22;5047852;28;20036;-56
2023/01/18 03:26:27;;;;;;;14.43;10.13;;;;;;;-3.31;100.00;99183.69;5041857;28;20032;-54
2023/01/18 03:34:46;;;;;;;16.60;9.65;;;;;;;-3.37;100.00;99180.47;5042299;28;20418;-56
2023/01/18 03:37:29;;;;;;;15.27;10.32;;;;;;;-3.38;100.00;99188.31;5048123;28;20506;-52
2023/01/18 03:40:02;;;;;;;17.63;10.13;;;;;;;-3.42;100.00;99179.84;5050956;28;20060;-53
2023/01/18 03:42:39;;;;;;;17.95;10.52;;;;;;;-3.42;100.00;99177.25;5047788;28;20055;-56
2023/01/18 03:45:17;;;;;;;18.90;10.23;;;;;;;-3.44;100.00;99188.63;5051229;28;20448;-55
2023/01/18 03:47:42;;;;;;;18.85;11.18;;;;;;;-3.46;100.00;99193.88;5043573;28;20045;-54
2023/01/18 03:50:08;;;;;;;15.70;10.50;;;;;;;-3.47;100.00;99187.00;5050944;28;20025;-53
2023/01/18 03:52:42;;;;;;;17.65;10.27;;;;;;;-3.49;100.00;99199.22;5051533;28;20024;-57
2023/01/18 03:55:15;;;;;;;19.50;11.38;;;;;;;-3.52;100.00;99204.53;5054330;28;20090;-55
2023/01/18 03:57:49;;;;;;;18.10;10.77;;;;;;;-3.54;100.00;99212.38;5054232;28;20104;-53
2023/01/18 04:00:15;;;;;;;24.10;11.75;;;;;;;-3.58;100.00;99218.63;5047211;28;20119;-56
2023/01/18 04:02:43;;;;;;;20.83;11.38;;;;;;;-3.60;100.00;99214.41;5054135;28;20055;-55
2023/01/18 04:05:09;;;;;;;17.17;11.20;;;;;;;-3.65;100.00;99229.34;5054564;28;20025;-56
2023/01/18 04:07:34;;;;;;;19.65;11.30;;;;;;;-3.68;100.00;99232.94;5053191;28;20029;-55
2023/01/18 04:10:00;;;;;;;20.52;11.45;;;;;;;-3.70;100.00;99236.50;5054384;28;20024;-53
2023/01/18 04:12:25;;;;;;;18.38;11.38;;;;;;;-3.70;100.00;99233.91;5051482;28;20071;-53
2023/01/18 04:14:51;;;;;;;21.90;11.68;;;;;;;-3.70;100.00;99236.50;5054046;28;20036;-54
2023/01/18 04:17:17;;;;;;;19.65;11.15;;;;;;;-3.72;100.00;99231.38;5053869;28;20056;-56
2023/01/18 04:19:42;;;;;;;19.90;12.02;;;;;;;-3.73;100.00;99237.44;5049046;28;20028;-53
2023/01/18 04:22:08;;;;;;;23.10;12.63;;;;;;;-3.73;100.00;99234.84;5044031;28;20112;-55
2023/01/18 04:24:33;;;;;;;18.23;11.23;;;;;;;-3.74;100.00;99239.22;5049001;28;20037;-54
2023/01/18 04:26:58;;;;;;;18.77;12.35;;;;;;;-3.73;100.00;99238.31;5048702;28;20029;-53
2023/01/18 04:29:24;;;;;;;19.77;12.20;;;;;;;-3.73;100.00;99245.25;5054451;28;20458;-55
2023/01/18 04:31:49;;;;;;;22.35;11.65;;;;;;;-3.72;100.00;99249.53;5047084;28;20068;-54
2023/01/18 04:34:14;;;;;;;19.90;11.23;;;;;;;-3.73;100.00;99235.72;5053843;28;20027;-54
2023/01/18 04:36:40;;;;;;;19.40;11.55;;;;;;;-3.72;100.00;99239.97;5053665;28;20479;-55
2023/01/18 04:39:05;;;;;;;20.38;11.52;;;;;;;-3.72;100.00;99239.97;5054002;28;20025;-56
2023/01/18 04:41:30;;;;;;;22.35;12.40;;;;;;;-3.69;100.00;99240.78;5052163;28;20021;-54
2023/01/18 04:43:56;;;;;;;21.92;12.75;;;;;;;-3.69;100.00;99246.81;5053849;28;20048;-53
2023/01/18 04:46:21;;;;;;;21.38;12.02;;;;;;;-3.69;100.00;99246.81;5048850;28;20029;-55
2023/01/18 04:48:50;;;;;;;21.58;12.70;;;;;;;-3.69;100.00;99253.75;5054147;28;20053;-56
2023/01/18 04:51:15;;;;;;;;;;;;;;;-3.66;100.00;99246.69;5049040;28;20099;-54
2023/01/18 04:53:41;;;;;;;19.73;11.85;;;;;;;-3.69;100.00;99257.19;5054064;28;20000;-53
2023/01/18 04:56:07;;;;;;;21.17;11.88;;;;;;;-3.71;100.00;99253.81;5053648;28;20104;-52
2023/01/18 04:58:32;;;;;;;17.95;12.32;;;;;;;-3.71;100.00;99253.81;5051241;28;20091;-56
2023/01/18 05:01:02;;;;;;;23.17;12.40;;;;;;;-3.72;100.00;99252.13;5053514;28;20029;-53
2023/01/18 05:03:27;;;;;;;22.15;12.13;;;;;;;-3.73;100.00;99251.28;5052332;28;20021;-56
2023/01/18 05:05:53;;;;;;;23.25;13.23;;;;;;;-3.72;100.00;99263.34;5049220;28;20071;-55
2023/01/18 05:08:19;;;;;;;19.45;12.40;;;;;;;-3.72;100.00;99267.69;5053428;28;20094;-54
2023/01/18 05:10:44;;;;;;;22.50;12.93;;;;;;;-3.72;100.00;99272.88;5050904;28;20033;-56
2023/01/18 05:13:09;;;;;;;19.88;12.57;;;;;;;-3.72;100.00;99276.31;5053308;28;20029;-56
2023/01/18 05:15:34;;;;;;;22.00;13.00;;;;;;;-3.69;100.00;99282.28;5050714;28;20037;-55
2023/01/18 05:18:01;;;;;;;23.95;13.93;;;;;;;-3.69;100.00;99274.50;5053391;28;20483;-54
2023/01/18 05:20:26;;;;;;;21.73;13.73;;;;;;;-3.69;100.00;99272.75;5051481;28;20033;-57
2023/01/18 05:22:51;;;;;;;21.98;12.70;;;;;;;-3.70;100.00;99281.44;5042921;28;20025;-54
2023/01/18 05:25:17;;;;;;;18.70;12.70;;;;;;;-3.68;100.00;99289.16;5052368;28;20483;-54
2023/01/18 05:27:42;;;;;;;21.13;12.75;;;;;;;-3.69;100.00;99285.72;5052751;28;20159;-56
2023/01/18 05:30:09;;;;;;;25.80;13.52;;;;;;;-3.69;100.00;99293.50;5052848;28;20383;-55
2023/01/18 05:32:34;;;;;;;24.15;13.48;;;;;;;-3.70;100.00;99291.81;5052706;28;20111;-55
2023/01/18 05:35:00;;;;;;;19.48;12.68;;;;;;;-3.71;100.00;99295.34;5042784;28;20108;-54
2023/01/18 05:37:25;;;;;;;24.77;14.18;;;;;;;-3.69;100.00;99292.69;5052520;28;20475;-54
2023/01/18 05:39:51;;;;;;;22.23;13.45;;;;;;;-3.69;100.00;99293.50;5047793;28;20026;-54
2023/01/18 05:42:16;;;;;;;22.77;13.52;;;;;;;-3.70;100.00;99296.16;5050175;28;20025;-56
2023/01/18 05:44:41;;;;;;;21.98;13.68;;;;;;;-3.70;100.00;99303.94;5050946;28;20036;-54
2023/01/18 05:47:07;;;;;;;23.90;13.90;;;;;;;-3.70;100.00;99301.34;5051655;28;20028;-56
2023/01/18 05:49:32;;;;;;;19.75;13.10;;;;;;;-3.69;100.00;99301.28;5052622;28;20029;-53
2023/01/18 05:51:57;;;;;;;25.90;15.00;;;;;;;-3.71;100.00;99310.91;5049978;28;20419;-53
2023/01/18 05:54:22;;;;;;;21.48;13.48;;;;;;;-3.71;100.00;99310.91;5052441;28;20112;-56
2023/01/18 05:56:48;;;;;;;22.65;14.77;;;;;;;-3.71;100.00;99318.69;5052051;28;20021;-55
2023/01/18 05:59:14;;;;;;;24.98;14.65;;;;;;;-3.72;100.00;99320.41;5052625;28;20040;-56
2023/01/18 06:01:40;;;;;;;22.90;14.93;;;;;;;-3.72;100.00;99317.81;5051340;28;20399;-53
2023/01/18 06:04:05;;;;;;;22.08;14.70;;;;;;;-3.72;100.00;99319.59;5052534;28;20155;-56
2023/01/18 06:06:31;;;;;;;22.55;14.13;;;;;;;-3.73;100.00;99315.28;5052149;28;20492;-55
2023/01/18 06:08:56;;;;;;;25.08;14.38;;;;;;;-3.74;100.00;99324.00;5049177;28;20539;-56
2023/01/18 06:11:22;;;;;;;23.00;15.02;;;;;;;-3.75;100.00;99328.34;5052224;28;20108;-56
2023/01/18 06:13:47;;;;;;;23.20;14.98;;;;;;;-3.73;100.00;99333.44;5043882;28;20128;-56
2023/01/18 06:16:12;;;;;;;21.50;13.85;;;;;;;-3.73;100.00;99334.31;5050846;28;20064;-57
2023/01/18 06:18:38;;;;;;;24.55;15.02;;;;;;;-3.74;100.00;99330.03;5052418;28;20475;-55
2023/01/18 06:21:04;;;;;;;21.95;14.02;;;;;;;-3.73;100.00;99342.09;5043560;28;20158;-57
2023/01/18 06:23:30;;;;;;;21.00;14.77;;;;;;;-3.72;100.00;99342.94;5039578;28;20108;-57
2023/01/18 06:25:56;;;;;;;28.85;15.13;;;;;;;-3.73;100.00;99338.63;5051548;28;20131;-54
2023/01/18 06:28:22;;;;;;;22.95;15.20;;;;;;;-3.73;100.00;99343.81;5052437;28;20040;-54
2023/01/18 06:30:50;;;;;;;21.85;14.52;;;;;;;-3.72;100.00;99342.94;5044685;28;20095;-55
2023/01/18 06:33:15;;;;;;;23.92;14.82;;;;;;;-3.73;100.00;99359.38;5051995;28;20040;-54
2023/01/18 06:35:42;;;;;;;30.85;16.25;;;;;;;-3.74;100.00;99368.09;5052129;28;20029;-52
2023/01/18 06:38:07;;;;;;;20.30;14.68;;;;;;;-3.74;100.00;99368.09;5051372;28;20021;-55
2023/01/18 06:40:32;;;;;;;25.02;15.32;;;;;;;-3.74;100.00;99371.53;5044565;28;20029;-56
2023/01/18 06:42:58;;;;;;;24.33;15.00;;;;;;;-3.75;100.00;99366.41;5051714;28;20033;-55
2023/01/18 06:45:24;;;;;;;26.95;14.75;;;;;;;-3.75;100.00;99367.28;5048573;28;20031;-55
2023/01/18 06:47:50;;;;;;;22.02;13.80;;;;;;;-3.75;100.00;99366.41;5052178;28;20052;-57
2023/01/18 06:50:16;;;;;;;21.13;14.18;;;;;;;-3.76;100.00;99375.94;5049691;28;20036;-56
2023/01/18 06:52:42;;;;;;;23.80;16.23;;;;;;;-3.76;100.00;99378.53;5027616;28;20029;-57
2023/01/18 06:55:08;;;;;;;25.52;15.48;;;;;;;-3.76;100.00;99386.31;5051509;28;20035;-56
2023/01/18 06:57:34;;;;;;;23.13;14.90;;;;;;;-3.75;100.00;99392.34;5034568;28;20052;-56
2023/01/18 07:00:00;;;;;;;24.85;15.63;;;;;;;-3.76;100.00;99390.69;5048883;28;20032;-55
2023/01/18 07:02:27;;;;;;;25.98;15.20;;;;;;;-3.77;100.00;99394.16;5051139;28;20029;-56
2023/01/18 07:04:53;;;;;;;22.63;13.30;;;;;;;-3.78;100.00;99398.53;5043014;28;20043;-56
2023/01/18 07:07:18;;;;;;;25.15;14.88;;;;;;;-3.78;100.00;99408.91;5051432;28;20383;-56
2023/01/18 07:09:44;;;;;;;23.42;14.70;;;;;;;-3.78;100.00;99408.91;5051183;28;20017;-55
2023/01/18 07:12:09;;;;;;;25.20;15.02;;;;;;;-3.78;100.00;99408.91;5046100;28;20575;-56
2023/01/18 07:14:34;;;;;;;21.38;15.43;;;;;;;-3.77;100.00;99412.34;5039874;28;21395;-57
2023/01/18 07:17:00;;;;;;;24.10;14.45;;;;;;;-3.79;100.00;99411.56;5050323;28;20148;-55
2023/01/18 07:19:25;;;;;;;26.17;15.05;;;;;;;-3.80;100.00;99410.69;5030494;28;20072;-56
2023/01/18 07:21:52;;;;;;;20.02;14.60;;;;;;;-3.79;100.00;99411.56;5044039;28;20534;-54
2023/01/18 07:24:18;;;;;;;22.83;15.15;;;;;;;-3.79;100.00;99421.94;5045684;28;20080;-57
2023/01/18 07:26:43;;;;;;;24.08;15.35;;;;;;;-3.78;100.00;99423.59;5041560;28;20443;-54
2023/01/18 07:29:08;;;;;;;26.45;14.55;;;;;;;-3.78;100.00;99427.06;5037639;28;20038;-55
2023/01/18 07:31:34;;;;;;;26.58;15.38;;;;;;;-3.77;100.00;99420.94;5047758;28;20071;-55
2023/01/18 07:33:59;;;;;;;24.58;15.70;;;;;;;-3.78;100.00;99415.81;5042216;28;20052;-53
2023/01/18 07:36:24;;;;;;;21.83;14.77;;;;;;;-3.76;100.00;99424.41;5041225;28;20036;-53
2023/01/18 07:38:50;;;;;;;22.08;14.73;;;;;;;-3.76;100.00;99432.19;5044014;28;20040;-53
2023/01/18 07:41:15;;;;;;;20.60;14.73;;;;;;;-3.76;100.00;99427.00;5038238;28;20024;-57
2023/01/18 07:43:43;;;;;;;25.20;15.77;;;;;;;-3.75;100.00;99426.06;5038497;28;20068;-55
2023/01/18 07:46:15;;;;;;;24.85;14.35;;;;;;;-3.74;100.00;99432.97;5036860;28;20075;-57
2023/01/18 07:48:41;;;;;;;25.00;15.02;;;;;;;-3.72;100.00;99436.34;5038410;28;20029;-56
2023/01/18 07:51:09;;;;;;;20.40;14.00;;;;;;;-3.72;100.00;99441.53;5034466;28;20087;-53
2023/01/18 07:53:35;;;;;;;23.02;13.63;;;;;;;-3.71;100.00;99438.03;5037313;28;20045;-56
2023/01/18 07:56:04;;;;;;;22.67;14.73;;;;;;;-3.70;100.00;99437.09;5035633;28;20501;-56
2023/01/18 07:58:29;;;;;;;21.50;14.50;;;;;;;-3.67;100.00;99446.53;5037723;28;20029;-57
2023/01/18 08:01:01;;;;;;;21.85;14.23;;;;;;;-3.67;100.00;99441.34;5021063;28;20033;-56
2023/01/18 08:03:26;;;;;;;22.33;13.88;;;;;;;-3.65;100.00;99449.91;5036314;28;20065;-56
2023/01/18 08:05:51;;;;;;;23.05;13.48;;;;;;;-3.64;100.00;99454.19;5035840;28;20482;-57
2023/01/18 08:08:17;;;;;;;22.50;13.13;;;;;;;-3.65;100.00;99450.72;5033783;28;20017;-56
2023/01/18 08:10:43;;;;;;;22.38;14.45;;;;;;;-3.63;100.00;99455.88;5033563;28;20459;-56
2023/01/18 08:13:09;;;;;;;19.17;13.77;;;;;;;-3.62;100.00;99461.00;5037232;28;20530;-54
2023/01/18 08:15:35;;;;;;;23.23;13.77;;;;;;;-3.60;100.00;99468.72;5040547;28;20048;-54
2023/01/18 08:18:02;;;;;;;21.13;13.45;;;;;;;-3.59;100.00;99467.81;5042049;28;20044;-52
2023/01/18 08:20:28;;;;;;;21.90;13.80;;;;;;;-3.57;100.00;99471.19;5038522;28;20574;-55
2023/01/18 08:22:55;;;;;;;22.23;13.88;;;;;;;-3.55;100.00;99470.25;5037994;28;20037;-56
2023/01/18 08:25:28;;;;;;;21.42;13.30;;;;;;;-3.52;100.00;99477.03;5041028;28;20478;-57
2023/01/18 08:27:58;;;;;;;24.77;13.68;;;;;;;-3.50;100.00;99470.03;5038422;28;20036;-54
2023/01/18 08:30:29;;;;;;;23.73;14.88;;;;;;;-3.50;100.00;99464.00;5047760;28;20087;-57
2023/01/18 08:32:56;;;;;;;22.63;14.63;;;;;;;-3.45;100.00;99480.22;5044889;28;20052;-55
2023/01/18 08:35:22;;;;;;;23.58;13.40;;;;;;;-3.44;100.00;99469.78;5037823;28;20479;-55
2023/01/18 08:37:48;;;;;;;21.02;14.43;;;;;;;-3.42;100.00;99483.53;5045490;28;20029;-55
2023/01/18 08:40:13;;;;;;;19.33;13.93;;;;;;;-3.39;100.00;99492.97;5037640;28;20021;-55
2023/01/18 08:42:38;;;;;;;22.83;13.95;;;;;;;-3.37;100.00;99491.97;5047027;28;20024;-56
2023/01/18 08:45:04;;;;;;;22.52;13.85;;;;;;;-3.34;100.00;99496.22;5037426;28;20024;-55
2023/01/18 08:47:30;;;;;;;27.95;15.18;;;;;;;-3.30;100.00;99499.53;5043234;28;20033;-55
2023/01/18 08:49:55;;;;;;;23.85;14.88;;;;;;;-3.27;100.00;99505.44;5038144;28;20022;-54
2023/01/18 08:52:20;;;;;;;21.35;14.85;;;;;;;-3.24;100.00;99510.50;5040708;28;20021;-54
2023/01/18 08:54:46;;;;;;;22.48;14.18;;;;;;;-3.17;100.00;99511.09;5049097;28;20028;-56
2023/01/18 08:57:11;;;;;;;23.73;14.23;;;;;;;-3.13;100.00;99517.88;5040171;28;20462;-57
2023/01/18 08:59:36;;;;;;;20.85;13.73;;;;;;;-3.09;100.00;99521.19;5037704;28;20033;-57
2023/01/18 09:02:02;;;;;;;21.70;14.18;;;;;;;-3.05;100.00;99521.00;5037326;28;20026;-58
2023/01/18 09:04:30;;;;;;;23.35;14.00;;;;;;;-3.00;100.00;99524.25;5033813;28;20131;-56
2023/01/18 09:06:55;;;;;;;21.10;14.68;;;;;;;-2.94;100.00;99532.69;5038449;28;20029;-56
2023/01/18 09:09:20;;;;;;;22.08;14.65;;;;;;;-2.88;100.00;99529.81;5039490;28;20032;-57
2023/01/18 09:11:49;;;;;;;22.42;13.57;;;;;;;-2.84;100.00;99528.78;5010195;28;20022;-56
2023/01/18 09:14:14;;;;;;;20.00;13.93;;;;;;;-2.78;100.00;99525.94;5040300;28;20025;-57
2023/01/18 09:16:39;;;;;;;22.80;13.65;;;;;;;-2.73;100.00;99531.78;5039935;28;20708;-57
2023/01/18 09:19:05;;;;;;;20.38;13.18;;;;;;;-2.66;100.00;99535.78;5034955;28;20029;-57
2023/01/18 09:21:30;;;;;;;21.10;13.80;;;;;;;-2.59;100.00;99538.97;5040210;28;20124;-59
2023/01/18 09:23:58;;;;;;;19.30;14.07;;;;;;;-2.53;100.00;99540.44;5040778;28;20033;-54
2023/01/18 09:26:23;;;;;;;20.45;12.63;;;;;;;-2.44;100.00;99546.09;5035752;28;20029;-57
2023/01/18 09:28:51;;;;;;;16.48;12.43;;;;;;;-2.33;100.00;99550.81;5039239;28;20021;-56
2023/01/18 09:31:17;;;;;;;20.95;12.60;;;;;;;-2.23;100.00;99551.25;5042312;28;20029;-56
2023/01/18 09:33:42;;;;;;;21.73;13.82;;;;;;;-2.11;100.00;99550.69;5036667;28;20257;-57
2023/01/18 09:36:11;;;;;;;19.00;12.80;;;;;;;-1.98;100.00;99557.94;5038594;28;20021;-58
2023/01/18 09:38:38;;;;;;;20.45;12.65;;;;;;;-1.85;100.00;99561.66;5032763;28;20032;-58
2023/01/18 09:41:30;;;;;;;18.88;12.65;;;;;;;-1.71;100.00;99571.47;5046040;28;20013;-58
2023/01/18 09:44:12;;;;;;;16.40;12.32;;;;;;;-1.56;100.00;99565.53;5034321;28;20043;-57
2023/01/18 09:46:40;;;;;;;21.52;12.13;;;;;;;-1.42;100.00;99562.25;5032510;28;20088;-58
2023/01/18 09:49:16;;;;;;;16.58;11.93;;;;;;;-1.26;100.00;99574.56;5030674;28;20029;-59
2023/01/18 09:51:58;;;;;;;16.98;12.20;;;;;;;-1.14;100.00;99573.97;5037485;28;20044;-58
2023/01/18 09:54:46;;;;;;;19.08;12.50;;;;;;;-1.00;100.00;99584.56;5028864;28;20411;-59
2023/01/18 09:57:28;;;;;;;21.48;11.98;;;;;;;-0.86;100.00;99583.03;5034339;28;20027;-58
2023/01/18 09:59:56;;;;;;;18.63;11.20;;;;;;;-0.73;100.00;99580.66;5031365;28;20037;-57
2023/01/18 10:02:26;;;;;;;19.05;11.95;;;;;;;-0.62;100.00;99573.97;5035562;28;20400;-58
2023/01/18 10:04:57;;;;;;;18.13;11.48;;;;;;;-0.51;100.00;99573.44;5032083;28;20018;-59
2023/01/18 10:07:26;;;;;;;19.33;12.38;;;;;;;-0.38;100.00;99574.50;5016231;28;20072;-59
2023/01/18 10:09:59;;;;;;;18.55;11.38;;;;;;;-0.25;100.00;99579.06;5029847;28;20028;-59
2023/01/18 10:12:43;;;;;;;16.02;10.90;;;;;;;-0.14;99.53;99586.34;5033847;28;20562;-59
2023/01/18 10:15:16;;;;;;;15.57;10.55;;;;;;;-0.02;99.79;99590.91;5033214;28;20068;-60
2023/01/18 10:17:42;;;;;;;15.43;10.57;;;;;;;0.11;99.57;99589.31;5030133;28;20644;-58
2023/01/18 10:20:34;;;;;;;16.48;10.80;;;;;;;0.20;99.00;99589.75;5025198;28;20138;-60
2023/01/18 10:23:11;;;;;;;15.30;10.40;;;;;;;0.32;98.18;99587.31;5032205;28;20036;-60
2023/01/18 10:25:44;;;;;;;16.17;11.13;;;;;;;0.44;97.94;99587.59;5035977;28;20433;-61
2023/01/18 10:28:09;;;;;;;13.85;10.13;;;;;;;0.54;97.79;99597.44;5050529;28;20021;-61
2023/01/18 10:30:42;;;;;;;14.03;10.13;;;;;;;0.62;97.25;99594.41;5047575;28;20471;-61
2023/01/18 10:33:37;;;;;;;15.95;10.65;;;;;;;0.76;97.24;99595.41;5050287;28;20286;-59
2023/01/18 10:36:17;;;;;;;21.58;11.13;;;;;;;0.85;97.33;99590.50;5040597;28;20131;-61
2023/01/18 10:38:44;;;;;;;15.82;10.07;;;;;;;0.97;97.32;99595.97;5050285;28;20024;-61
2023/01/18 10:41:24;;;;;;;15.80;10.63;;;;;;;1.08;97.59;99586.59;5046516;28;20031;-61
2023/01/18 10:43:50;;;;;;;14.32;9.65;;;;;;;1.21;96.93;99591.09;5046684;28;20100;-61
2023/01/18 10:46:18;;;;;;;15.18;9.95;;;;;;;1.26;94.00;99589.06;5049754;28;20135;-61
2023/01/18 10:48:47;;;;;;;14.57;9.60;;;;;;;1.32;94.32;99590.50;5049356;28;20037;-61
2023/01/18 10:51:34;;;;;;;16.58;9.55;;;;;;;1.44;95.60;99593.22;5050255;28;20028;-62
2023/01/18 10:54:20;;;;;;;16.70;10.00;;;;;;;1.56;95.18;99594.25;5046174;28;20017;-62
2023/01/18 10:56:46;;;;;;;13.38;9.18;;;;;;;1.67;93.56;99594.47;5046179;28;20040;-61
2023/01/18 10:59:29;;;;;;;17.05;9.90;;;;;;;1.75;94.27;99595.78;5047037;28;20033;-61
2023/01/18 11:01:56;;;;;;;14.70;9.23;;;;;;;1.82;93.39;99594.50;5045047;28;20021;-61
2023/01/18 11:04:27;;;;;;;14.88;9.32;;;;;;;1.90;92.15;99597.50;5050998;28;20537;-61
2023/01/18 11:06:59;;;;;;;14.43;9.45;;;;;;;1.92;91.05;99595.59;5060290;28;20066;-61
2023/01/18 11:09:45;;;;;;;12.00;9.05;;;;;;;2.02;91.91;99599.34;5063801;28;20127;-59
2023/01/18 11:12:36;;;;;;;11.52;9.20;;;;;;;2.10;92.42;99605.88;5058356;28;20032;-60
2023/01/18 11:15:14;;;;;;;15.77;9.73;;;;;;;2.18;91.36;99603.63;5063093;28;20367;-59
2023/01/18 11:17:59;;;;;;;14.07;9.02;;;;;;;2.25;91.30;99602.34;5056997;28;20431;-60
2023/01/18 11:20:37;;;;;;;15.23;9.32;;;;;;;2.34;90.30;99607.00;5055622;28;20062;-59
2023/01/18 11:23:14;;;;;;;12.43;8.40;;;;;;;2.42;89.46;99606.53;5038552;28;20045;-58
2023/01/18 11:25:57;;;;;;;13.70;9.65;;;;;;;2.48;89.89;99614.00;5051919;28;20067;-57
2023/01/18 11:28:43;;;;;;;14.93;8.38;;;;;;;2.53;89.12;99606.69;5047272;28;20057;-58
2023/01/18 11:31:21;;;;;;;12.88;8.00;;;;;;;2.56;87.81;99601.22;5047088;28;20030;-58
2023/01/18 11:34:06;;;;;;;12.90;8.68;;;;;;;2.66;88.64;99608.53;5047693;28;20071;-59
2023/01/18 11:36:35;;;;;;;13.82;9.07;;;;;;;2.71;88.20;99595.97;5052568;28;20037;-55
2023/01/18 11:39:36;;;;;;;14.15;8.20;;;;;;;2.81;89.40;99599.66;5029337;28;20372;-57
2023/01/18 11:42:10;;;;;;;13.25;8.45;;;;;;;2.84;88.04;99599.47;4970515;28;20050;-58
2023/01/18 11:44:39;;;;;;;10.40;7.82;;;;;;;2.87;86.70;99603.69;5036319;28;20069;-57
2023/01/18 11:47:11;;;;;;;12.60;8.13;;;;;;;2.92;86.61;99593.75;5052712;28;20440;-58
2023/01/18 11:50:24;;;;;;;12.77;8.45;;;;;;;3.00;87.50;99596.72;5051248;28;20033;-58
2023/01/18 11:53:30;;;;;;;11.13;8.05;;;;;;;3.05;87.01;99596.38;5043294;28;20052;-58
2023/01/18 11:56:05;;;;;;;10.32;7.70;;;;;;;3.11;85.50;99596.88;5041094;28;20029;-58